Time;durP1;ratioP1;P1;durP2;ratioP2;P2;SDS_P1;SDS_P2;PMS_P1;PMS_P2;Temp;Humidity;BMP_temperature;BMP_pressure;BME280_temperature;BME280_humidity;BME280_pressure;Samples;Min_cycle;Max_cycle;Signal;HPM_P1;HPM_P2
2021/12/15 00:02:25;;;;;;;164.20;21.85;;;;;;;5.52;90.53;101975.12;1708719;82;21490;-73
2021/12/15 00:04:55;;;;;;;96.65;23.45;;;;;;;5.52;90.54;101982.41;1721870;82;20981;-73
2021/12/15 00:07:25;;;;;;;74.37;17.02;;;;;;;5.50;90.52;101977.64;1711351;83;22394;-73
2021/12/15 00:09:52;;;;;;;65.05;16.93;;;;;;;5.50;90.49;101976.36;1718095;82;21430;-73
2021/12/15 00:12:20;;;;;;;24.57;13.68;;;;;;;5.49;90.47;101977.60;1724442;81;21516;-73
2021/12/15 00:14:47;;;;;;;129.03;20.75;;;;;;;5.49;90.51;101978.47;1714672;82;21088;-74
2021/12/15 00:17:15;;;;;;;231.90;42.48;;;;;;;5.49;90.53;101972.47;1723500;82;21468;-73
2021/12/15 00:19:42;;;;;;;33.20;16.57;;;;;;;5.48;90.52;101972.88;1737457;82;21576;-73
2021/12/15 00:22:12;;;;;;;33.83;16.55;;;;;;;5.49;90.53;101963.49;1729141;82;20968;-73
2021/12/15 00:24:39;;;;;;;26.52;15.55;;;;;;;5.50;90.55;101972.92;1702362;82;21550;-73
2021/12/15 00:27:05;;;;;;;30.00;16.67;;;;;;;5.50;90.57;101962.66;1724658;82;21378;-73
2021/12/15 00:29:32;;;;;;;30.95;16.25;;;;;;;5.51;90.55;101959.27;1710781;82;21445;-73
2021/12/15 00:32:03;;;;;;;27.52;15.65;;;;;;;5.50;90.54;101962.25;1702170;82;21390;-73
2021/12/15 00:34:26;;;;;;;30.55;16.05;;;;;;;5.51;90.54;101972.09;1703287;82;20913;-73
2021/12/15 00:36:52;;;;;;;26.15;15.15;;;;;;;5.51;90.54;101977.23;1735584;81;21900;-73
2021/12/15 00:39:21;;;;;;;28.02;15.78;;;;;;;5.51;90.53;101971.69;1702280;83;21383;-73
2021/12/15 00:41:48;;;;;;;28.15;14.93;;;;;;;5.51;90.55;101963.98;1713937;82;21431;-73
2021/12/15 00:44:16;;;;;;;25.55;15.40;;;;;;;5.51;90.53;101958.86;1714029;82;20918;-73
2021/12/15 00:46:43;;;;;;;28.95;15.75;;;;;;;5.52;90.51;101957.16;1712597;82;20890;-73
2021/12/15 00:49:10;;;;;;;27.48;15.43;;;;;;;5.52;90.51;101959.73;1718303;82;20925;-73
2021/12/15 00:51:38;;;;;;;25.43;15.55;;;;;;;5.53;90.56;101960.18;1725457;82;21470;-73
2021/12/15 00:54:07;;;;;;;24.60;14.65;;;;;;;5.54;90.53;101966.64;1713191;82;21390;-73
2021/12/15 00:56:34;;;;;;;29.25;15.55;;;;;;;5.54;90.49;101970.90;1705916;82;20920;-73
2021/12/15 00:59:03;;;;;;;28.77;15.38;;;;;;;5.56;90.53;101970.52;1719281;82;20889;-73
2021/12/15 01:01:30;;;;;;;27.42;14.65;;;;;;;5.55;90.53;101973.50;1712447;82;21434;-73
2021/12/15 01:03:56;;;;;;;35.38;15.45;;;;;;;5.56;90.52;101976.94;1702349;82;20937;-73
2021/12/15 01:06:23;;;;;;;24.70;14.65;;;;;;;5.53;90.46;101979.01;1702318;82;21367;-73
2021/12/15 01:08:56;;;;;;;32.03;14.98;;;;;;;5.55;90.49;101982.89;1714792;81;21477;-73
2021/12/15 01:11:53;;;;;;;22.48;14.05;;;;;;;5.56;90.50;101988.48;1706888;81;21675;-74
2021/12/15 01:19:52;;;;;;;21.07;12.20;;;;;;;5.57;90.50;101998.78;1708599;82;21057;-73
2021/12/15 01:22:36;;;;;;;22.82;12.00;;;;;;;5.57;90.65;101997.92;1719798;82;21273;-74
2021/12/15 01:25:07;;;;;;;22.35;12.82;;;;;;;5.57;90.65;101997.92;1694308;83;20962;-73
2021/12/15 01:27:41;;;;;;;17.30;11.20;;;;;;;5.56;90.49;101999.61;1697141;83;21380;-74
2021/12/15 01:30:11;;;;;;;23.18;12.53;;;;;;;5.59;90.50;102002.67;1699998;83;21456;-74
2021/12/15 01:32:38;;;;;;;23.22;13.30;;;;;;;5.58;90.50;102009.50;1684095;83;20955;-74
2021/12/15 01:35:05;;;;;;;24.12;14.13;;;;;;;5.57;90.48;102010.33;1705094;83;21348;-74
2021/12/15 01:37:33;;;;;;;26.77;13.22;;;;;;;5.57;90.50;102012.03;1691867;83;21543;-74
2021/12/15 01:39:59;;;;;;;22.22;12.05;;;;;;;5.56;90.52;102003.88;1684145;83;21277;-73
2021/12/15 01:42:29;;;;;;;24.25;12.78;;;;;;;5.56;90.49;102003.88;1687944;83;21381;-74
2021/12/15 01:47:38;;;;;;;18.87;12.33;;;;;;;5.53;90.47;101999.95;1688954;83;20925;-73
2021/12/15 01:50:07;;;;;;;26.23;12.75;;;;;;;5.52;90.51;102001.64;1684145;83;20946;-73
2021/12/15 01:52:38;;;;;;;26.55;14.13;;;;;;;5.51;90.54;101999.91;1693062;83;21423;-74
2021/12/15 01:55:12;;;;;;;23.12;12.40;;;;;;;5.51;90.52;102006.73;1701313;83;21368;-73
2021/12/15 01:57:41;;;;;;;23.90;13.40;;;;;;;5.52;90.56;102007.19;1683958;83;20918;-73
2021/12/15 02:00:24;;;;;;;26.33;13.53;;;;;;;5.52;90.53;102011.91;1704637;83;21049;-73
2021/12/15 02:02:54;;;;;;;25.95;14.40;;;;;;;5.51;90.54;102008.88;1687871;83;21072;-73
2021/12/15 02:05:21;;;;;;;22.73;13.25;;;;;;;5.50;90.53;102011.00;1690887;83;20899;-73
2021/12/15 02:07:48;;;;;;;26.65;13.20;;;;;;;5.50;90.53;102014.84;1696820;83;20962;-73
2021/12/15 02:10:17;;;;;;;23.22;12.10;;;;;;;5.50;90.56;102021.25;1683943;83;21415;-73
2021/12/15 02:12:44;;;;;;;304.80;36.50;;;;;;;5.51;90.57;102016.58;1694314;83;20925;-73
2021/12/15 02:15:21;;;;;;;23.65;13.00;;;;;;;5.50;90.54;102016.54;1703820;83;20958;-73
2021/12/15 02:17:48;;;;;;;26.60;13.15;;;;;;;5.51;90.54;102014.43;1698796;83;20923;-73
2021/12/15 02:20:18;;;;;;;21.77;12.60;;;;;;;5.51;90.51;102027.25;1704631;83;20891;-73
2021/12/15 02:22:45;;;;;;;22.42;13.05;;;;;;;5.50;90.51;102027.67;1692782;82;20918;-73
2021/12/15 02:25:15;;;;;;;22.67;12.20;;;;;;;5.49;90.48;102023.78;1702418;82;21525;-73
2021/12/15 02:27:43;;;;;;;24.65;11.20;;;;;;;5.49;90.49;102031.47;1714893;82;20905;-73
2021/12/15 02:30:40;;;;;;;21.77;12.07;;;;;;;5.49;90.51;102032.76;1713718;82;20998;-73
2021/12/15 02:38:18;;;;;;;23.32;12.45;;;;;;;5.49;90.38;102026.34;1702188;82;21040;-73
2021/12/15 02:40:46;;;;;;;22.30;11.12;;;;;;;5.49;90.38;102026.34;1700136;82;21092;-73
2021/12/15 02:43:13;;;;;;;21.80;11.55;;;;;;;5.50;90.50;102022.95;1723909;82;21537;-73
2021/12/15 02:45:40;;;;;;;22.27;11.68;;;;;;;5.51;90.52;102028.54;1705007;82;21096;-73
2021/12/15 02:48:06;;;;;;;24.50;11.95;;;;;;;5.50;90.49;102019.97;1700335;82;21064;-73
2021/12/15 02:50:33;;;;;;;24.67;11.90;;;;;;;5.51;90.50;102024.28;1718276;82;21571;-73
2021/12/15 02:53:00;;;;;;;19.23;11.43;;;;;;;5.53;90.48;102024.32;1725456;82;21335;-73
2021/12/15 02:55:28;;;;;;;;;;;;;;;5.52;90.48;102020.88;1714960;82;21111;-73
2021/12/15 02:57:55;;;;;;;23.42;10.85;;;;;;;5.53;90.48;102023.91;1719304;82;20189;-73
2021/12/15 03:00:27;;;;;;;22.07;10.98;;;;;;;5.53;90.46;102018.77;1708724;82;21072;-73
2021/12/15 03:05:29;;;;;;;25.48;12.68;;;;;;;5.55;90.53;102018.81;1727203;82;20985;-73
2021/12/15 03:08:10;;;;;;;30.92;13.32;;;;;;;5.54;90.49;102015.38;1717398;82;21083;-73
2021/12/15 03:16:07;;;;;;;24.85;11.22;;;;;;;5.53;90.50;102025.60;1725018;82;21057;-73
2021/12/15 03:18:37;;;;;;;22.32;11.12;;;;;;;5.52;90.51;102029.86;1728641;82;21107;-73
2021/12/15 03:21:09;;;;;;;;;;;;;;;5.52;90.51;102032.84;1710176;82;21064;-73
2021/12/15 03:23:46;;;;;;;21.02;10.55;;;;;;;5.52;90.55;102031.14;1706740;82;20183;-73
2021/12/15 03:26:12;;;;;;;21.15;11.05;;;;;;;5.53;90.52;102037.15;1720200;82;21061;-73
2021/12/15 03:34:37;;;;;;;23.60;11.10;;;;;;;5.54;90.55;102036.32;1713305;82;20918;-73
2021/12/15 03:37:07;;;;;;;23.70;11.05;;;;;;;5.55;90.58;102036.36;1704144;82;20910;-73
2021/12/15 03:39:20;;;;;;;23.38;12.40;;;;;;;5.56;90.59;102031.69;1719611;81;20893;-73
2021/12/15 03:41:56;;;;;;;24.07;11.43;;;;;;;5.58;90.59;102035.16;1708845;82;20933;-73
2021/12/15 03:44:18;;;;;;;23.10;11.68;;;;;;;5.59;90.60;102037.31;1725976;82;20917;-73
2021/12/15 03:46:44;;;;;;;23.42;11.93;;;;;;;5.60;90.55;102035.20;1703322;82;20939;-73
2021/12/15 03:49:11;;;;;;;25.77;11.80;;;;;;;5.60;90.55;102031.35;1702308;82;20878;-73
2021/12/15 03:51:37;;;;;;;21.77;11.45;;;;;;;5.61;90.56;102033.09;1713322;82;20965;-73
2021/12/15 03:54:04;;;;;;;23.15;11.95;;;;;;;5.62;90.58;102035.70;1718666;82;20906;-73
2021/12/15 03:56:31;;;;;;;26.20;13.30;;;;;;;5.63;90.57;102031.44;1702237;82;20969;-73
2021/12/15 03:58:58;;;;;;;27.00;13.40;;;;;;;5.63;90.55;102036.16;1707744;82;20964;-73
2021/12/15 04:01:26;;;;;;;23.55;12.60;;;;;;;5.64;90.54;102037.03;1717921;82;21438;-73
2021/12/15 04:03:54;;;;;;;23.42;12.98;;;;;;;5.65;90.54;102033.63;1702374;82;20954;-73
2021/12/15 04:06:25;;;;;;;26.62;13.43;;;;;;;5.65;90.54;102035.78;1719298;82;21363;-73
2021/12/15 04:08:52;;;;;;;25.68;11.95;;;;;;;5.64;90.57;102026.77;1711578;82;20957;-73
2021/12/15 04:11:20;;;;;;;;;;;;;;;5.65;90.54;102029.38;1704419;82;20925;-73
2021/12/15 04:13:48;;;;;;;23.67;11.97;;;;;;;5.65;90.57;102033.63;1702199;82;20680;-73
2021/12/15 04:18:54;;;;;;;28.32;13.03;;;;;;;5.67;90.54;102036.23;1659547;82;20953;-73
2021/12/15 04:21:20;;;;;;;25.85;12.75;;;;;;;5.65;90.55;102031.94;1702340;82;20972;-73
2021/12/15 04:23:57;;;;;;;24.77;12.20;;;;;;;5.67;90.53;102031.11;1715854;82;20914;-73
2021/12/15 04:26:28;;;;;;;26.75;13.32;;;;;;;5.66;90.53;102031.52;1718645;82;20949;-73
2021/12/15 04:28:55;;;;;;;24.67;12.98;;;;;;;5.67;90.53;102034.55;1702225;82;20965;-73
2021/12/15 04:31:24;;;;;;;;;;;;;;;5.67;90.53;102033.27;1704758;82;20913;-73
2021/12/15 04:33:59;;;;;;;26.20;13.08;;;;;;;5.68;90.53;102033.72;1719896;82;20129;-73
2021/12/15 04:36:30;;;;;;;26.73;13.48;;;;;;;5.66;90.51;102028.95;1712847;82;20894;-73
2021/12/15 04:38:59;;;;;;;30.68;14.35;;;;;;;5.66;90.52;102034.09;1719627;82;20941;-73
2021/12/15 04:41:26;;;;;;;31.80;14.65;;;;;;;5.66;90.52;102037.94;1713345;82;21862;-73
2021/12/15 04:43:57;;;;;;;32.85;15.10;;;;;;;5.63;90.49;102037.44;1716935;82;21383;-73
2021/12/15 04:46:28;;;;;;;27.80;14.13;;;;;;;5.63;90.51;102038.72;1702085;82;20923;-73
2021/12/15 04:49:05;;;;;;;33.08;15.85;;;;;;;5.65;90.51;102049.03;1714409;82;20881;-73
2021/12/15 04:51:32;;;;;;;34.63;16.20;;;;;;;5.62;90.48;102045.97;1716411;82;20881;-73
2021/12/15 04:53:58;;;;;;;36.88;16.27;;;;;;;5.62;90.51;102047.66;1703139;82;21075;-73
2021/12/15 04:56:27;;;;;;;36.13;16.95;;;;;;;5.62;90.51;102049.81;1718194;82;21103;-73
2021/12/15 04:58:55;;;;;;;42.80;18.20;;;;;;;5.61;90.49;102053.63;1727771;82;21552;-73
2021/12/15 05:01:24;;;;;;;41.18;17.85;;;;;;;5.60;90.49;102057.02;1710343;81;20981;-73
2021/12/15 05:03:50;;;;;;;44.70;18.30;;;;;;;5.60;90.52;102061.73;1720844;81;20906;-73
2021/12/15 05:06:17;;;;;;;42.88;17.15;;;;;;;5.60;90.53;102054.45;1723280;82;20952;-73
2021/12/15 05:08:43;;;;;;;42.60;19.32;;;;;;;5.59;90.51;102051.02;1680663;83;20908;-72
2021/12/15 05:11:12;;;;;;;43.87;18.50;;;;;;;5.60;90.53;102055.73;1717623;82;20917;-70
2021/12/15 05:13:39;;;;;;;45.52;18.23;;;;;;;5.61;90.54;102057.47;1713036;82;20897;-70
2021/12/15 05:16:06;;;;;;;43.95;19.77;;;;;;;5.62;90.54;102057.92;1712270;81;20961;-73
2021/12/15 05:18:35;;;;;;;48.00;21.10;;;;;;;5.61;90.56;102051.05;1700569;81;48569;-73
2021/12/15 05:21:02;;;;;;;40.80;18.77;;;;;;;5.63;90.58;102048.12;1715084;81;20946;-72
2021/12/15 05:23:31;;;;;;;44.35;19.10;;;;;;;5.63;90.54;102041.70;1700557;82;20895;-72
2021/12/15 05:25:59;;;;;;;42.27;18.25;;;;;;;5.61;90.51;102035.66;1685706;83;21456;-72
2021/12/15 05:28:27;;;;;;;43.78;19.75;;;;;;;5.60;90.51;102026.22;1704119;83;20949;-72
2021/12/15 05:30:55;;;;;;;42.67;19.35;;;;;;;5.60;90.51;102035.20;1702580;83;20922;-72
2021/12/15 05:33:25;;;;;;;39.70;19.35;;;;;;;5.60;90.52;102038.64;1678858;83;20899;-72
2021/12/15 05:35:53;;;;;;;45.05;20.12;;;;;;;5.62;90.54;102045.09;1698653;83;20926;-72
2021/12/15 05:38:21;;;;;;;45.70;19.80;;;;;;;5.61;90.53;102049.77;1691412;83;21435;-72
2021/12/15 05:40:48;;;;;;;40.05;18.85;;;;;;;5.60;90.52;102052.75;1699015;83;21017;-72
2021/12/15 05:43:15;;;;;;;42.05;19.45;;;;;;;5.60;90.51;102054.03;1686905;83;20946;-72
2021/12/15 05:45:42;;;;;;;40.83;19.42;;;;;;;5.60;90.53;102051.47;1692486;83;20926;-72
2021/12/15 05:48:13;;;;;;;43.28;19.77;;;;;;;5.60;90.54;102059.58;1693751;83;20954;-72
2021/12/15 05:50:41;;;;;;;44.48;20.85;;;;;;;5.60;90.53;102057.02;1689906;83;21243;-72
2021/12/15 05:53:08;;;;;;;41.68;21.05;;;;;;;5.59;90.54;102052.70;1719439;82;21065;-72
2021/12/15 05:55:35;;;;;;;51.42;22.40;;;;;;;5.60;90.54;102054.45;1726513;82;21092;-72
2021/12/15 05:58:03;;;;;;;53.25;23.32;;;;;;;5.60;90.53;102058.30;1728764;81;20925;-72
2021/12/15 06:00:33;;;;;;;61.85;25.40;;;;;;;5.60;90.56;102063.43;1721557;82;20902;-72
2021/12/15 06:03:00;;;;;;;50.50;23.50;;;;;;;5.59;90.53;102068.11;1721077;82;20944;-73
2021/12/15 06:05:27;;;;;;;56.53;24.18;;;;;;;5.59;90.51;102066.83;1729236;82;20974;-73
2021/12/15 06:07:54;;;;;;;55.83;24.92;;;;;;;5.58;90.50;102065.95;1720735;81;20930;-72
2021/12/15 06:10:25;;;;;;;56.35;24.82;;;;;;;5.57;90.50;102062.93;1718617;82;21310;-72
2021/12/15 06:12:52;;;;;;;54.25;23.65;;;;;;;5.58;90.51;102061.23;1720088;82;21449;-72
2021/12/15 06:15:23;;;;;;;48.33;22.02;;;;;;;5.57;90.53;102060.36;1718066;82;20941;-72
2021/12/15 06:17:56;;;;;;;50.17;22.30;;;;;;;5.57;90.53;102056.93;1714898;82;20954;-72
2021/12/15 06:20:23;;;;;;;48.58;19.65;;;;;;;5.56;90.54;102052.21;1732477;82;20965;-72
2021/12/15 06:22:52;;;;;;;44.63;19.85;;;;;;;5.56;90.56;102052.62;1718918;82;20882;-72
2021/12/15 06:25:17;;;;;;;48.55;21.15;;;;;;;5.55;90.58;102054.32;1717280;82;20965;-72
2021/12/15 06:27:43;;;;;;;47.45;19.92;;;;;;;5.56;90.61;102057.34;1730546;82;20953;-72
2021/12/15 06:30:11;;;;;;;50.12;21.42;;;;;;;5.57;90.60;102059.49;1675164;84;20962;-72
2021/12/15 06:32:37;;;;;;;52.60;20.82;;;;;;;5.57;90.60;102058.21;1713399;83;20993;-72
2021/12/15 06:35:05;;;;;;;;;;;;;;;5.56;90.59;102062.47;1711577;82;20926;-72
2021/12/15 06:37:32;;;;;;;53.33;19.73;;;;;;;5.57;90.63;102068.06;1757429;80;20121;-72
2021/12/15 06:39:58;;;;;;;146.60;71.80;;;;;;;5.57;90.60;102063.34;1750998;80;21385;-72
2021/12/15 06:42:29;;;;;;;46.98;20.57;;;;;;;5.57;90.62;102062.93;1769087;80;21076;-72
2021/12/15 06:44:56;;;;;;;52.55;20.97;;;;;;;5.57;90.59;102067.19;1758444;80;20945;-72
2021/12/15 06:57:17;;;;;;;;;;;;;;;5.59;90.66;102069.39;1758990;80;20837;-72
2021/12/15 06:58:28;;;;;;;52.20;20.95;;;;;;;5.65;90.68;102070.84;1641917;86;20975;-72
2021/12/15 07:00:58;;;;;;;50.60;20.75;;;;;;;5.64;90.66;102076.39;1653873;85;21102;-72
2021/12/15 07:03:26;;;;;;;59.53;22.87;;;;;;;5.67;90.66;102078.58;1656790;86;20923;-72
2021/12/15 07:05:55;;;;;;;59.48;23.42;;;;;;;5.65;90.65;102075.56;1657617;85;21003;-72
2021/12/15 07:08:24;;;;;;;50.12;21.15;;;;;;;5.67;90.65;102087.56;1651279;86;21115;-72
2021/12/15 07:10:52;;;;;;;58.28;22.70;;;;;;;5.68;90.65;102098.28;1654437;85;21730;-72
2021/12/15 07:13:21;;;;;;;64.03;24.87;;;;;;;5.68;90.67;102099.56;1656254;86;21027;-72
2021/12/15 07:15:48;;;;;;;54.45;22.40;;;;;;;5.68;90.64;102104.28;1655331;86;21138;-72
2021/12/15 07:18:26;;;;;;;62.65;22.93;;;;;;;5.68;90.64;102107.27;1655360;86;21154;-72
2021/12/15 07:20:54;;;;;;;54.98;22.50;;;;;;;5.69;90.64;102111.57;1652637;86;21650;-72
2021/12/15 07:23:23;;;;;;;52.67;20.90;;;;;;;5.69;90.64;102109.00;1654786;85;21368;-72
2021/12/15 07:25:52;;;;;;;46.42;21.57;;;;;;;5.70;90.62;102104.33;1646180;87;20955;-72
2021/12/15 07:28:24;;;;;;;50.90;20.95;;;;;;;5.71;90.63;102110.78;1646423;86;20988;-72
2021/12/15 07:30:50;;;;;;;52.62;20.40;;;;;;;5.74;90.65;102108.69;1642620;87;21060;-72
2021/12/15 07:33:17;;;;;;;47.73;20.08;;;;;;;5.75;90.65;102112.58;1647126;86;21069;-72
2021/12/15 07:35:43;;;;;;;42.90;18.80;;;;;;;5.77;90.62;102105.79;1647315;87;26701;-72
2021/12/15 07:38:09;;;;;;;42.25;18.87;;;;;;;5.81;90.66;102115.73;1647517;86;20992;-72
2021/12/15 07:40:39;;;;;;;40.58;18.75;;;;;;;5.83;90.64;102113.66;1647412;86;20940;-72
2021/12/15 07:43:12;;;;;;;40.45;19.35;;;;;;;5.86;90.66;102106.45;1647376;86;20920;-72
2021/12/15 07:45:43;;;;;;;41.10;18.17;;;;;;;5.88;90.64;102107.37;1646792;87;20959;-72
2021/12/15 07:48:12;;;;;;;45.23;19.15;;;;;;;5.90;90.62;102105.75;1647348;86;20952;-72
2021/12/15 07:50:41;;;;;;;46.08;20.65;;;;;;;5.91;90.61;102100.66;1647335;86;21389;-72
2021/12/15 07:53:07;;;;;;;43.55;19.12;;;;;;;5.93;90.62;102101.56;1645579;87;20988;-72
2021/12/15 07:55:34;;;;;;;37.98;18.67;;;;;;;5.94;90.61;102094.31;1647519;87;20959;-72
2021/12/15 07:58:02;;;;;;;50.12;20.68;;;;;;;5.96;90.60;102093.94;1645786;87;21389;-72
2021/12/15 08:00:29;;;;;;;45.85;20.35;;;;;;;6.00;90.64;102090.17;1644468;86;20968;-72
2021/12/15 08:02:56;;;;;;;47.58;21.52;;;;;;;6.02;90.64;102089.80;1644098;87;20940;-72
2021/12/15 08:05:22;;;;;;;44.38;21.68;;;;;;;6.04;90.64;102090.70;1646824;86;20952;-72
2021/12/15 08:07:49;;;;;;;49.15;22.37;;;;;;;6.06;90.65;102097.63;1643476;86;21008;-72
2021/12/15 08:10:16;;;;;;;53.28;23.12;;;;;;;6.08;90.67;102089.97;1648227;86;21079;-72
2021/12/15 08:12:45;;;;;;;55.20;24.10;;;;;;;6.11;90.65;102093.89;1652071;86;20956;-72
2021/12/15 08:15:12;;;;;;;51.77;22.32;;;;;;;6.13;90.64;102094.80;1628332;87;20959;-72
2021/12/15 08:17:42;;;;;;;49.15;22.55;;;;;;;6.13;90.63;102098.23;1645197;87;21083;-72
2021/12/15 08:20:12;;;;;;;49.70;21.82;;;;;;;6.16;90.66;102102.17;1644760;87;21560;-72
2021/12/15 08:22:39;;;;;;;43.33;19.52;;;;;;;6.19;90.66;102102.67;1639529;86;21558;-72
2021/12/15 08:25:09;;;;;;;41.95;18.87;;;;;;;6.19;90.64;102102.67;1614030;86;21116;-72
2021/12/15 08:27:36;;;;;;;39.63;17.60;;;;;;;6.23;90.66;102109.62;1387115;87;10001079;-72
2021/12/15 08:30:07;;;;;;;40.67;18.40;;;;;;;6.24;90.64;102115.18;1594607;88;21765;-72
2021/12/15 08:32:33;;;;;;;41.05;18.12;;;;;;;6.25;90.67;102116.50;1607737;87;21057;-72
2021/12/15 08:35:00;;;;;;;39.88;18.17;;;;;;;6.28;90.65;102123.42;1607218;89;21561;-73
2021/12/15 08:37:26;;;;;;;41.05;17.35;;;;;;;6.29;90.65;102127.31;1606436;89;21633;-72
2021/12/15 08:39:54;;;;;;;40.10;17.73;;;;;;;6.31;90.66;102136.34;1496765;87;10000188;-72
2021/12/15 08:42:21;;;;;;;37.63;17.32;;;;;;;6.32;90.63;102140.66;1607027;87;20907;-72
2021/12/15 08:44:47;;;;;;;43.13;17.77;;;;;;;6.32;90.62;102141.94;1606871;89;22256;-72
2021/12/15 08:47:13;;;;;;;40.92;17.42;;;;;;;6.35;90.65;102149.72;1606485;89;20990;-72
2021/12/15 08:49:39;;;;;;;44.85;19.25;;;;;;;6.36;90.64;102145.45;1606491;88;20958;-72
2021/12/15 08:52:09;;;;;;;41.90;18.32;;;;;;;6.37;90.62;102151.91;1606348;89;21049;-72
2021/12/15 08:54:35;;;;;;;42.53;17.42;;;;;;;6.39;90.63;102140.39;1602877;89;21037;-72
2021/12/15 08:57:02;;;;;;;46.68;19.50;;;;;;;6.39;90.63;102137.83;1601683;89;20990;-72
2021/12/15 08:59:29;;;;;;;39.18;17.20;;;;;;;6.39;90.62;102133.55;1606847;89;21025;-72
2021/12/15 09:01:56;;;;;;;45.03;18.73;;;;;;;6.41;90.67;102132.31;1607124;89;21525;-72
2021/12/15 09:04:23;;;;;;;39.27;18.32;;;;;;;6.43;90.69;102126.38;1598533;87;20949;-72
2021/12/15 09:06:51;;;;;;;49.95;18.55;;;;;;;6.45;90.69;102122.16;1604237;87;21476;-72
2021/12/15 09:09:20;;;;;;;46.40;19.32;;;;;;;6.49;90.70;102129.52;1596722;89;21395;-72
2021/12/15 09:11:49;;;;;;;44.27;17.80;;;;;;;6.50;90.71;102119.28;1584346;89;20964;-72
2021/12/15 09:14:17;;;;;;;42.83;17.90;;;;;;;6.54;90.72;102124.95;1598215;87;20981;-72
2021/12/15 09:16:47;;;;;;;46.23;18.23;;;;;;;6.57;90.74;102117.31;1604467;88;21005;-72
2021/12/15 09:19:15;;;;;;;43.83;18.20;;;;;;;6.61;90.72;102107.56;1597445;89;21056;-72
2021/12/15 09:21:43;;;;;;;35.20;16.07;;;;;;;6.64;90.70;102103.78;1605178;88;22270;-72
2021/12/15 09:24:12;;;;;;;44.65;17.57;;;;;;;6.68;90.72;102094.86;1596066;87;21056;-72
2021/12/15 09:26:38;;;;;;;47.53;19.02;;;;;;;6.72;90.77;102083.41;1634885;86;21091;-72
2021/12/15 09:29:06;;;;;;;44.53;18.62;;;;;;;6.76;90.75;102089.03;1634825;86;21134;-72
2021/12/15 09:31:33;;;;;;;46.05;18.75;;;;;;;6.80;90.71;102080.98;1643687;87;21035;-72
2021/12/15 09:34:00;;;;;;;43.45;18.42;;;;;;;6.82;90.71;102072.47;1631675;87;21535;-72
2021/12/15 09:36:28;;;;;;;43.83;18.45;;;;;;;6.86;90.71;102074.69;1644010;87;21673;-72
2021/12/15 09:38:59;;;;;;;41.63;18.05;;;;;;;6.89;90.72;102072.19;1643700;87;21603;-72
2021/12/15 09:41:30;;;;;;;44.18;18.25;;;;;;;6.94;90.72;102074.03;1635767;86;21507;-72
2021/12/15 09:44:03;;;;;;;43.15;18.02;;;;;;;6.98;90.73;102077.54;1643706;86;21591;-72
2021/12/15 09:57:25;;;;;;;34.35;15.53;;;;;;;7.17;90.69;102074.53;1640892;86;21749;-72
2021/12/15 10:18:42;;;;;;;47.73;23.00;;;;;;;7.33;90.65;102072.25;1602248;87;21460;-72
2021/12/15 10:21:04;;;;;;;30.43;16.12;;;;;;;7.36;90.70;102078.33;1642446;87;21125;-72
2021/12/15 10:23:38;;;;;;;35.55;17.42;;;;;;;7.40;90.70;102074.12;1644016;86;21569;-72
2021/12/15 10:26:06;;;;;;;31.70;16.87;;;;;;;7.42;90.66;102073.73;1637740;86;21533;-72
2021/12/15 10:28:35;;;;;;;31.23;16.20;;;;;;;7.44;90.68;102065.62;1642034;87;21073;-72
2021/12/15 10:31:06;;;;;;;32.78;16.70;;;;;;;7.48;90.70;102063.14;1644989;86;21089;-72
2021/12/15 10:33:37;;;;;;;30.95;15.78;;;;;;;7.52;90.70;102062.36;1644037;86;21523;-72
2021/12/15 10:36:10;;;;;;;33.85;17.57;;;;;;;7.59;90.77;102059.48;1640541;86;21602;-72
2021/12/15 10:38:45;;;;;;;37.10;18.65;;;;;;;7.63;90.72;102060.87;1638910;86;21597;-72
2021/12/15 10:41:32;;;;;;;30.55;16.65;;;;;;;7.66;90.67;102052.75;1637340;87;21089;-72
2021/12/15 10:44:07;;;;;;;34.60;18.20;;;;;;;7.68;90.66;102062.66;1637974;87;21475;-72
2021/12/15 10:46:43;;;;;;;33.48;18.60;;;;;;;7.69;90.65;102066.55;1630353;87;21135;-72
2021/12/15 10:49:17;;;;;;;34.63;19.27;;;;;;;7.69;90.65;102067.84;1640900;87;21629;-72
2021/12/15 10:52:08;;;;;;;36.85;20.90;;;;;;;7.69;90.62;102075.98;1639230;85;21507;-72
2021/12/15 10:54:46;;;;;;;39.10;21.30;;;;;;;7.68;90.61;102069.09;1644045;86;21021;-72
2021/12/15 10:57:22;;;;;;;37.95;21.17;;;;;;;7.63;90.58;102062.16;1640092;87;21037;-72
2021/12/15 10:59:53;;;;;;;43.13;22.10;;;;;;;7.61;90.60;102069.40;1631994;86;21046;-72
2021/12/15 11:02:27;;;;;;;45.38;24.30;;;;;;;7.58;90.59;102074.48;1644942;86;21416;-72
2021/12/15 11:05:14;;;;;;;38.45;19.95;;;;;;;7.55;90.60;102070.56;1635961;86;21760;-72
2021/12/15 11:07:46;;;;;;;41.55;21.17;;;;;;;7.52;90.65;102071.38;1637254;87;21085;-72
2021/12/15 11:10:21;;;;;;;48.83;23.75;;;;;;;7.50;90.63;102067.03;1645650;87;21510;-72
2021/12/15 11:13:01;;;;;;;48.20;24.05;;;;;;;7.49;90.64;102071.73;1644785;86;20998;-72
2021/12/15 11:15:32;;;;;;;48.58;23.57;;;;;;;7.46;90.66;102080.67;1645096;86;21522;-72
2021/12/15 11:18:22;;;;;;;49.15;24.10;;;;;;;7.46;90.70;102076.39;1644728;86;20974;-72
2021/12/15 11:21:02;;;;;;;44.15;22.82;;;;;;;7.47;90.73;102068.25;1631059;87;20982;-72
2021/12/15 11:23:32;;;;;;;44.33;23.85;;;;;;;7.48;90.74;102069.57;1645483;87;20946;-72
2021/12/15 11:26:03;;;;;;;43.08;22.42;;;;;;;7.50;90.77;102057.60;1644645;86;21355;-72
2021/12/15 11:28:45;;;;;;;39.00;22.80;;;;;;;7.53;90.79;102061.95;1643288;87;20946;-72
2021/12/15 11:31:16;;;;;;;40.48;21.02;;;;;;;7.55;90.82;102057.28;1638655;87;20967;-72
2021/12/15 11:33:50;;;;;;;42.45;22.35;;;;;;;7.59;90.76;102055.62;1644215;87;20950;-72
2021/12/15 11:36:27;;;;;;;41.88;21.25;;;;;;;7.60;90.73;102054.38;1639446;86;20962;-72
2021/12/15 11:39:06;;;;;;;44.75;23.20;;;;;;;7.61;90.72;102050.09;1634608;86;20915;-72
2021/12/15 11:41:39;;;;;;;40.65;21.33;;;;;;;7.63;90.70;102053.14;1644560;87;20986;-72
2021/12/15 11:44:22;;;;;;;40.17;21.75;;;;;;;7.64;90.74;102054.88;1645082;86;20927;-72
2021/12/15 11:47:00;;;;;;;41.45;22.58;;;;;;;7.64;90.71;102057.45;1643608;86;21133;-72
2021/12/15 11:49:34;;;;;;;41.13;21.45;;;;;;;7.65;90.70;102062.19;1632126;86;21006;-72
2021/12/15 11:52:06;;;;;;;43.48;22.70;;;;;;;7.64;90.65;102060.03;1622085;87;21053;-72
2021/12/15 11:54:37;;;;;;;42.65;22.70;;;;;;;7.63;90.67;102060.00;1643375;86;21085;-72
2021/12/15 11:57:24;;;;;;;43.55;22.67;;;;;;;7.62;90.69;102064.28;1643678;86;20997;-72
2021/12/15 12:00:06;;;;;;;41.50;22.67;;;;;;;7.63;90.67;102069.01;1643860;87;21070;-72
2021/12/15 12:02:39;;;;;;;44.63;24.87;;;;;;;7.62;90.66;102076.28;1616808;87;21145;-72
2021/12/15 12:05:14;;;;;;;46.40;25.77;;;;;;;7.60;90.65;102071.52;1636170;87;21143;-73
2021/12/15 12:07:54;;;;;;;48.25;26.10;;;;;;;7.58;90.65;102075.77;1643005;87;21071;-72
2021/12/15 12:10:28;;;;;;;48.23;25.52;;;;;;;7.55;90.67;102066.28;1634308;86;21152;-72
2021/12/15 12:13:07;;;;;;;46.33;25.72;;;;;;;7.55;90.67;102074.42;1641563;87;21121;-72
2021/12/15 12:15:37;;;;;;;47.65;26.37;;;;;;;7.53;90.67;102073.11;1642298;87;21065;-72
2021/12/15 12:18:14;;;;;;;47.90;26.80;;;;;;;7.50;90.67;102063.17;1643920;86;21088;-72
2021/12/15 12:20:47;;;;;;;44.50;24.00;;;;;;;7.52;90.68;102069.22;1642624;84;291233;-72
2021/12/15 12:23:18;;;;;;;42.70;23.10;;;;;;;7.51;90.64;102068.34;1611116;87;21064;-72
2021/12/15 12:25:48;;;;;;;41.20;23.50;;;;;;;7.49;90.65;102063.59;1613651;87;21068;-73
2021/12/15 12:28:21;;;;;;;40.80;22.85;;;;;;;7.50;90.68;102064.45;1612270;87;21135;-72
2021/12/15 12:30:55;;;;;;;43.08;24.23;;;;;;;7.50;90.67;102055.03;1606496;87;21076;-72
2021/12/15 12:33:24;;;;;;;48.73;26.27;;;;;;;7.49;90.67;102062.30;1588826;87;21072;-72
2021/12/15 12:36:08;;;;;;;42.50;23.65;;;;;;;7.49;90.67;102054.58;1616324;88;21480;-72
2021/12/15 12:38:40;;;;;;;39.05;23.38;;;;;;;7.47;90.64;102056.25;1612931;87;20918;-72
2021/12/15 12:41:13;;;;;;;42.73;23.92;;;;;;;7.46;90.63;102062.23;1616615;87;21141;-72